• Join FlightAware (Why Join?)
  • Login
  • US Flag 
01:00AM EST


 

Airport Tracker/Info


-or-


 

Live Flight TrackerFlight Track Log ✈ AAY861 ✈ 11-Jun-2014 ✈ KLEX - KPIE

Flight Track Log - Related Links

Times and Time Zones

All times are in EDT time to prevent confusion due to time zone crossing. See the AAY861 flight status page for this flight to view local times or setup timezone preferences in your user account.

Time Position Orientation Groundspeed Altitude Reporting Facility
EDT Latitude Longitude Course Direction KTS MPH feet Rate Location/Type
09:33AM 37.8092 -84.5117 158° South 298 343 11,300  Level FlightAware ADS-B
09:34AM 37.7512 -84.4623 166° South 303 349 13,400 1,980 Climbing FlightAware ADS-B
09:35AM 37.4407 -84.3204 166° South  Level FlightAware Approximate
09:36AM 37.6378 -84.4336 180° South 354 407 16,500  Level FlightAware ADS-B
09:37AM 37.4523 -84.4338 180° South 370 426 19,600 1,800 Climbing FlightAware ADS-B
09:41AM 37.0716 -84.4340 180° South 394 453 25,600 1,560 Climbing FlightAware ADS-B
09:42AM 36.9379 -84.4473 191° South 402 463 27,200 1,260 Climbing FlightAware ADS-B
09:47AM 36.3581 -84.5766 189° South 394 453 34,000 1,260 Climbing FlightAware ADS-B
09:48AM 36.2520 -84.5951 180° South 393 452 35,000 480 Climbing FlightAware ADS-B
09:49AM 36.1697 -84.5917 180° South 403 464 35,000  Level Atlanta Center
09:50AM 36.0614 -84.5833 176° South 398 458 35,000  Level Atlanta Center
09:51AM 35.9486 -84.5747 176° South 403 464 35,000 240 Level Atlanta Center
09:57AM 35.2631 -84.5328 177° South 390 449 37,000 300 Climbing FlightAware ADS-B (KDZJ)
09:57AM 35.1875 -84.5283 177° South 388 447 37,000  Level FlightAware ADS-B (KDZJ)
09:58AM 35.1124 -84.5237 177° South 389 448 37,000  Level FlightAware ADS-B (KDZJ)
09:59AM 35.0400 -84.5192 177° South 391 450 37,000  Level FlightAware ADS-B (KDZJ)
09:59AM 34.9668 -84.5146 177° South 390 449 37,000  Level FlightAware ADS-B (KDZJ)
10:00AM 34.8931 -84.5103 177° South 390 449 37,000  Level FlightAware ADS-B (KDZJ)
10:01AM 34.8194 -84.5057 177° South 391 450 37,000  Level FlightAware ADS-B (KDZJ)
10:01AM 34.7445 -84.5012 177° South 401 461 37,000  Level FlightAware ADS-B (KDZJ)
10:02AM 34.6707 -84.4968 177° South 401 461 37,000  Level FlightAware ADS-B (KDZJ)
10:03AM 34.5956 -84.4923 177° South 403 464 37,000  Level FlightAware ADS-B (KDZJ)
10:03AM 34.5214 -84.4877 177° South 404 465 37,000  Level FlightAware ADS-B (KDZJ)
10:04AM 34.4454 -84.4831 177° South 403 464 37,000  Level FlightAware ADS-B (KDZJ)
10:05AM 34.3342 -84.4766 177° South 402 463 37,000  Level FlightAware ADS-B (KDZJ)
10:06AM 34.2609 -84.4722 177° South 403 464 37,000  Level FlightAware ADS-B (KDZJ)
10:06AM 34.1855 -84.4677 177° South 405 466 37,000  Level FlightAware ADS-B (KDZJ)
10:07AM 34.1109 -84.4632 177° South 406 467 37,000  Level FlightAware ADS-B (KDZJ)
10:08AM 34.0348 -84.4587 177° South 405 466 37,000  Level FlightAware ADS-B (KDZJ)
10:08AM 33.9626 -84.4544 177° South 406 467 37,000  Level FlightAware ADS-B (KDZJ)
10:09AM 33.8860 -84.4498 177° South 405 466 37,000  Level FlightAware ADS-B (KDZJ)
10:10AM 33.8208 -84.4489 177° South 411 473 37,000  Level Atlanta Center
10:11AM 33.7122 -84.4408 176° South 405 466 37,000  Level Atlanta Center
10:12AM 33.6203 -84.4356 177° South 405 466 37,000  Level Atlanta Center
10:13AM 33.4931 -84.4325 179° South 410 472 37,000  Level Atlanta Center
10:14AM 33.3803 -84.4319 180° South 410 472 37,000  Level Atlanta Center
10:15AM 33.2633 -84.4314 180° South 410 472 37,000  Level Atlanta Center
10:16AM 33.1528 -84.4258 178° South 410 472 37,000  Level Atlanta Center
10:17AM 33.0400 -84.4253 180° South 410 472 37,000  Level Atlanta Center
10:18AM 32.9233 -84.4225 179° South 410 472 37,000  Level Atlanta Center
10:19AM 32.8106 -84.4194 179° South 410 472 37,000  Level Atlanta Center
10:20AM 32.6894 -84.4164 179° South 410 472 37,000  Level Atlanta Center
10:21AM 32.5747 -84.4158 180° South 403 464 37,000  Level Atlanta Center
10:22AM 32.4619 -84.4131 179° South 403 464 37,000  Level Atlanta Center
10:24AM 32.2347 -84.4081 179° South 405 466 37,000  Level Jacksonville Center
10:25AM 32.1200 -84.4061 179° South 405 466 37,000 -240 Level Jacksonville Center
10:26AM 32.0031 -84.4042 179° South 405 466 36,600 -600 Descending Jacksonville Center
10:32AM 31.2497 -84.3867 179° South 430 495 33,000 -480 Descending FlightAware ADS-B (KTLH)
10:33AM 31.1321 -84.3845 179° South 433 498 33,100  Climbing FlightAware ADS-B (KTLH)
10:34AM 31.0702 -84.3834 179° South 432 497 33,000 -480 Descending FlightAware ADS-B (KTLH)
10:35AM 30.9765 -84.3815 179° South 429 494 32,500 -780 Descending FlightAware ADS-B (KTLH)
10:35AM 30.8915 -84.3798 179° South 431 496 31,900 -1,080 Descending FlightAware ADS-B (KTLH)
10:36AM 30.8307 -84.3787 179° South 427 491 31,300 -900 Descending FlightAware ADS-B (KTLH)
10:36AM 30.7738 -84.3775 179° South 414 476 31,000 -300 Descending FlightAware ADS-B
10:37AM 30.7002 -84.3761 179° South 417 480 31,000  Level FlightAware ADS-B (KTLH)
10:37AM 30.6411 -84.3750 179° South 418 481 31,000  Level FlightAware ADS-B (KTLH)
10:38AM 30.5698 -84.3718 174° South 419 482 31,000  Level FlightAware ADS-B
10:38AM 30.5419 -84.3628 158° South 423 487 31,000  Level FlightAware ADS-B (KTLH)
10:39AM 30.4778 -84.3217 150° Southeast 424 488 31,000  Level FlightAware ADS-B
10:39AM 30.4273 -84.2885 151° Southeast 423 487 31,000  Level FlightAware ADS-B
10:40AM 30.3764 -84.2552 151° Southeast 423 487 31,000  Level FlightAware ADS-B (KTLH)
10:40AM 30.3191 -84.2175 148° Southeast 426 490 31,000  Level FlightAware ADS-B (KTLH)
10:41AM 30.2684 -84.1770 144° Southeast 428 493 31,000 -120 Level FlightAware ADS-B (KTLH)
10:41AM 30.2194 -84.1346 142° Southeast 429 494 30,900 -840 Descending FlightAware ADS-B (KTLH)
10:42AM 30.1732 -84.0928 142° Southeast 420 483 30,200 -1,440 Descending FlightAware ADS-B (KTLH)
10:42AM 30.1305 -84.0542 142° Southeast 416 479 29,500 -1,440 Descending FlightAware ADS-B (KTLH)
10:43AM 30.0917 -84.0191 142° Southeast 410 472 28,600 -1,320 Descending FlightAware ADS-B (KTLH)
10:44AM 30.0248 -83.9582 141° Southeast 407 468 28,000 -1,080 Descending FlightAware ADS-B (KTLH)
10:45AM 30.0205 -83.9542 142° Southeast 405 466 26,700 -960 Descending FlightAware ADS-B (KTLH)
10:46AM 29.8269 -83.7808 142° Southeast 415 478 25,800 -1,020 Descending Jacksonville Center
10:47AM 29.7400 -83.7058 143° Southeast 410 472 24,800 -960 Descending Jacksonville Center
10:48AM 29.6483 -83.6478 151° Southeast 405 466 24,000 -420 Descending Jacksonville Center
10:49AM 29.5442 -83.6158 165° South 374 430 24,000  Level Jacksonville Center
10:50AM 29.4442 -83.5842 165° South 379 436 24,000  Level Jacksonville Center
10:51AM 29.3503 -83.5550 165° South 384 442 24,000  Level Jacksonville Center
10:52AM 29.2483 -83.5186 163° South 384 442 24,000 -60 Level Jacksonville Center
10:53AM 29.1525 -83.4681 155° Southeast 384 442 23,900 -360 Descending Jacksonville Center
10:54AM 29.0567 -83.4056 150° Southeast 390 449 23,300 -780 Descending Jacksonville Center
10:55AM 28.9608 -83.3433 150° Southeast 390 449 22,400 -1,200 Descending Jacksonville Center
10:56AM 28.8694 -83.2839 150° Southeast 390 449 21,000 -1,620 Descending Jacksonville Center
10:57AM 28.7797 -83.2289 152° Southeast 378 435 19,200 -1,740 Descending Jacksonville Center
10:58AM 28.6900 -83.1742 152° Southeast 367 422 17,600 -1,680 Descending Jacksonville Center
10:59AM 28.5500 -83.0833 150° Southeast 355 409 14,900 -1,620 Descending Tampa TRACON
11:01AM 28.4667 -83.0167 145° Southeast 327 376 13,400 -1,740 Descending Tampa TRACON
11:02AM 28.4000 -82.9500 139° Southeast 308 354 11,300 -2,220 Descending Tampa TRACON
11:03AM 28.3500 -82.8833 130° Southeast 302 348 9,000 -2,340 Descending Tampa TRACON
11:03AM 28.2833 -82.8167 139° Southeast 287 330 6,900 -2,280 Descending Tampa TRACON
11:05AM 28.2167 -82.7667 147° Southeast 279 321 4,500 -2,100 Descending Tampa TRACON
11:06AM 28.1500 -82.7333 156° South 257 296 2,600 -960 Descending Tampa TRACON
11:08AM 28.0333 -82.7167 190° South 172 198 1,600 -420 Descending Tampa TRACON
11:09AM 27.9833 -82.7000 164° South 132 152 1,300 -480 Descending Tampa TRACON
11:10AM 27.9667 -82.7000 180° South 129 148 800 -720 Descending Tampa TRACON
11:15AM 27.9100 -82.6875 190° South  Level Estimated